Rosslare, Ireland

6:04 PM IST on July 04, 2015 (GMT +0100)
Carne | | Change Station
CLOSE
Current Station
Personal Weather Station
Location: Wexford, WEXFORD
Elevation: 3 ft
Nearby Weather Stations

Elev 3 ft 52.20 °N, 6.35 °W | Updated 1 minute ago

Scattered Clouds
Scattered Clouds
67.5 °F
Feels Like 67.5 °F
N
11.5
Wind Variable Wind from SW
Gusts 19.0 mph

Today
High -- | Low -- °F
--% Chance of Precip.
Yesterday
High -- | Low -- °F
Precip. -- in
5:09 AM 9:47 PM
Waning Gibbous, 91% visible
Pressure 30.04 in
Visibility 6.2 miles
Clouds Scattered Clouds 3000 ft
Dew Point 50 °F
Humidity 53%
Rainfall 0.00 in
Snow Depth Not available.
UV 3 out of 12
Pollen Not available.
Air Quality Not available.
Flu Activity Not available.
METAR EIWF 041630Z 23013KT 190V280 9999 SCT030 18/13 Q1017

More Conditions Fewer Conditions

Pressure 30.04 in
Visibility 6.2 miles
Clouds Scattered Clouds 3000 ft
Dew Point 50 °F
Humidity 53%
Rainfall 0.00 in
Snow Depth Not available.
UV 3 out of 12
Pollen Not available.
Air Quality Not available.
Flu Activity Not available.
METAR EIWF 041630Z 23013KT 190V280 9999 SCT030 18/13 Q1017

More Conditions Fewer Conditions

10-Day Weather Forecast

×

Almanac

Astronomy

Jul. 04, 2015 Rise Set
Actual Time
Civil Twilight
Nautical Twilight
Astronomical Twilight
Moon
Length of Visible Light
Length of Day
Tomorrow will be .
, % of the Moon is Illuminated

Today's Extremes

Country Highs Country Lows

Community

WunderPhotos

Upload Photos

1,835,003 photos uploaded!

WunderBlogs® & News

Nearby

Air Quality

  Air Quality AQ Index Pollutant
Not available.

Snow Depth

Station Depth Elevation

Earthquake Activity

City Distance Mag. Time & Date
Minimum magnitude displayed is 2.5.

Coastal Water Temperatures

Place Temperature

Stations

Nearby Weather Stations

Station Location Temp. Windchill Dew Point Humidity Wind Precip. Elev Updated Type